Time;durP1;ratioP1;P1;durP2;ratioP2;P2;SDS_P1;SDS_P2;PMS_P1;PMS_P2;Temp;Humidity;BMP_temperature;BMP_pressure;BME280_temperature;BME280_humidity;BME280_pressure;Samples;Min_cycle;Max_cycle;Signal;HPM_P1;HPM_P2
2022/09/22 00:01:00;;;;;;;4.68;3.97;;;13.30;99.90;;;;;;6068266;23;20200;-75
2022/09/22 00:03:31;;;;;;;6.22;3.30;;;13.20;99.90;;;;;;6066166;23;20287;-78
2022/09/22 00:06:04;;;;;;;3.25;3.05;;;13.20;99.90;;;;;;6066050;23;20224;-78
2022/09/22 00:08:34;;;;;;;3.92;3.35;;;13.20;99.90;;;;;;6068447;23;20223;-77
2022/09/22 00:11:03;;;;;;;3.72;3.42;;;13.20;99.90;;;;;;6066599;23;20542;-75
2022/09/22 00:13:31;;;;;;;3.40;3.10;;;13.30;99.90;;;;;;6067729;23;20212;-78
2022/09/22 00:15:59;;;;;;;3.72;3.42;;;13.30;99.90;;;;;;6067409;23;20271;-77
2022/09/22 00:18:26;;;;;;;3.58;3.25;;;13.30;99.90;;;;;;6068286;23;20208;-75
2022/09/22 00:20:53;;;;;;;6.18;4.88;;;13.20;99.90;;;;;;6068863;23;20524;-76
2022/09/22 00:23:24;;;;;;;4.85;3.55;;;13.20;99.90;;;;;;6069760;23;20208;-76
2022/09/22 00:25:52;;;;;;;6.13;3.92;;;13.20;99.90;;;;;;6069877;23;20271;-75
2022/09/22 00:28:20;;;;;;;4.35;3.53;;;13.20;99.90;;;;;;6070074;23;20204;-76
2022/09/22 00:30:47;;;;;;;4.40;4.00;;;13.20;99.90;;;;;;6071760;23;20212;-76
2022/09/22 00:33:14;;;;;;;3.50;3.20;;;13.10;99.90;;;;;;6071439;23;20289;-77
2022/09/22 00:35:44;;;;;;;3.60;3.30;;;13.10;99.90;;;;;;6069158;23;20200;-77
2022/09/22 00:38:11;;;;;;;4.05;3.75;;;13.10;99.90;;;;;;6069208;23;20214;-77
2022/09/22 00:40:39;;;;;;;5.30;3.63;;;13.10;99.90;;;;;;6069034;23;20227;-77
2022/09/22 00:43:18;;;;;;;4.03;3.63;;;13.00;99.90;;;;;;6068118;23;20279;-77
2022/09/22 00:45:47;;;;;;;3.22;3.03;;;13.00;99.90;;;;;;6067799;23;20522;-78
2022/09/22 00:48:14;;;;;;;3.40;2.92;;;13.00;99.90;;;;;;6068085;23;20215;-78
2022/09/22 00:50:41;;;;;;;3.22;2.95;;;13.00;99.90;;;;;;6068219;23;20204;-77
2022/09/22 00:53:12;;;;;;;3.58;3.28;;;13.00;99.90;;;;;;6067608;23;20210;-78
2022/09/22 00:55:46;;;;;;;4.45;3.95;;;13.00;99.90;;;;;;6068730;23;20279;-77
2022/09/22 00:58:16;;;;;;;5.28;4.20;;;12.90;99.90;;;;;;6068042;23;20621;-78
2022/09/22 01:00:43;;;;;;;4.88;4.20;;;12.90;99.90;;;;;;6068559;23;20238;-77
2022/09/22 01:03:14;;;;;;;6.18;4.45;;;12.90;99.90;;;;;;6067807;23;20204;-77
2022/09/22 01:05:43;;;;;;;5.15;4.13;;;12.80;99.90;;;;;;6068325;23;20215;-77
2022/09/22 01:08:12;;;;;;;3.90;3.60;;;12.80;99.90;;;;;;6067634;23;20571;-77
2022/09/22 01:10:39;;;;;;;5.32;4.80;;;12.80;99.90;;;;;;6068389;23;20192;-77
2022/09/22 01:13:23;;;;;;;5.00;4.18;;;12.80;99.90;;;;;;6066916;23;20207;-77
2022/09/22 01:16:11;;;;;;;4.30;3.83;;;12.80;99.90;;;;;;6068040;23;20223;-76
2022/09/22 01:18:48;;;;;;;4.70;4.22;;;12.70;99.90;;;;;;6068521;23;20519;-77
2022/09/22 01:21:32;;;;;;;4.18;3.78;;;12.70;99.90;;;;;;6067589;23;20255;-77
2022/09/22 01:28:04;;;;;;;4.82;4.43;;;12.70;99.90;;;;;;6020405;23;20199;-74
2022/09/22 01:30:37;;;;;;;6.07;4.15;;;12.70;99.90;;;;;;6064047;23;20279;-78
2022/09/22 01:33:22;;;;;;;3.95;3.60;;;12.60;99.90;;;;;;6068292;23;20243;-78
2022/09/22 01:36:07;;;;;;;3.50;3.15;;;12.60;99.90;;;;;;6068149;23;20196;-77
2022/09/22 01:38:42;;;;;;;3.55;3.25;;;12.60;99.90;;;;;;6067374;23;20660;-78
2022/09/22 01:41:16;;;;;;;3.40;3.10;;;12.50;99.90;;;;;;6053331;23;20212;-77
2022/09/22 01:43:49;;;;;;;3.72;3.42;;;12.50;99.90;;;;;;6067816;23;20216;-78
2022/09/22 01:46:24;;;;;;;3.60;3.30;;;12.50;99.90;;;;;;6067555;23;20200;-78
2022/09/22 01:48:52;;;;;;;4.03;3.63;;;12.50;99.90;;;;;;6067467;23;20212;-78
2022/09/22 01:51:27;;;;;;;3.47;3.17;;;12.40;99.90;;;;;;6069877;23;20208;-78
2022/09/22 01:54:00;;;;;;;3.22;2.92;;;12.40;99.90;;;;;;6071388;23;20500;-78
2022/09/22 01:56:31;;;;;;;3.45;3.00;;;12.30;99.90;;;;;;6071426;23;20204;-77
2022/09/22 01:59:01;;;;;;;3.33;3.03;;;12.30;99.90;;;;;;6070933;23;20203;-78
2022/09/22 02:01:32;;;;;;;3.75;3.45;;;12.20;99.90;;;;;;6071160;23;20264;-79
2022/09/22 02:04:08;;;;;;;3.40;2.95;;;12.20;99.90;;;;;;6071082;23;20200;-78
2022/09/22 02:06:41;;;;;;;4.03;3.58;;;12.20;99.90;;;;;;6071319;23;20203;-77
2022/09/22 02:09:11;;;;;;;3.20;3.00;;;12.10;99.90;;;;;;6069255;23;20210;-76
2022/09/22 02:11:39;;;;;;;2.97;2.63;;;12.10;99.90;;;;;;6070970;23;20560;-77
2022/09/22 02:14:07;;;;;;;3.03;2.83;;;12.10;99.90;;;;;;6070725;23;20203;-76
2022/09/22 02:16:36;;;;;;;4.05;3.47;;;12.10;99.90;;;;;;6071110;23;20227;-77
2022/09/22 02:19:15;;;;;;;3.97;3.17;;;12.20;99.90;;;;;;6070417;23;20223;-76
2022/09/22 02:21:45;;;;;;;4.50;3.63;;;12.10;99.90;;;;;;6071349;23;20199;-76
2022/09/22 02:24:30;;;;;;;3.40;3.10;;;12.10;99.90;;;;;;6069339;23;20604;-76
2022/09/22 02:26:58;;;;;;;3.25;3.05;;;12.10;99.90;;;;;;6070547;23;20263;-77
2022/09/22 02:29:28;;;;;;;2.80;2.60;;;12.10;99.90;;;;;;6071190;23;20200;-76
2022/09/22 02:32:00;;;;;;;4.95;3.80;;;12.00;99.90;;;;;;6070906;23;20227;-77
2022/09/22 02:34:28;;;;;;;3.90;3.50;;;12.00;99.90;;;;;;6059180;23;20259;-77
2022/09/22 02:37:03;;;;;;;3.20;2.95;;;12.00;99.90;;;;;;6070746;23;20524;-76
2022/09/22 02:39:37;;;;;;;2.85;2.65;;;12.00;99.90;;;;;;6071275;23;20227;-77
2022/09/22 02:42:18;;;;;;;3.97;2.90;;;12.00;99.90;;;;;;6070506;23;20720;-78
2022/09/22 02:44:49;;;;;;;2.95;2.58;;;12.00;99.90;;;;;;6070834;23;20287;-76
2022/09/22 02:47:26;;;;;;;3.65;3.30;;;12.00;99.90;;;;;;6070557;23;20196;-77
2022/09/22 02:49:54;;;;;;;3.55;3.25;;;12.00;99.90;;;;;;6063375;23;20248;-78
2022/09/22 02:52:24;;;;;;;3.67;3.38;;;11.90;99.90;;;;;;6070945;23;20648;-79
2022/09/22 02:54:52;;;;;;;3.10;2.90;;;11.90;99.90;;;;;;6071317;23;20267;-79
2022/09/22 02:57:19;;;;;;;2.97;2.67;;;11.90;99.90;;;;;;6070303;23;20200;-77
2022/09/22 02:59:46;;;;;;;2.65;2.45;;;11.90;99.90;;;;;;6070053;23;20215;-76
2022/09/22 03:02:13;;;;;;;2.38;2.20;;;12.00;99.90;;;;;;6069636;23;20208;-78
2022/09/22 03:04:41;;;;;;;3.28;2.33;;;11.90;99.90;;;;;;6068659;23;20255;-77
2022/09/22 03:07:08;;;;;;;2.47;2.28;;;11.90;99.90;;;;;;6068462;23;20612;-77
2022/09/22 03:09:35;;;;;;;3.20;2.90;;;11.90;99.90;;;;;;6069619;23;20283;-77
2022/09/22 03:12:02;;;;;;;3.55;3.00;;;11.90;99.90;;;;;;6056336;23;20211;-77
2022/09/22 03:14:29;;;;;;;3.47;3.17;;;11.90;99.90;;;;;;6069548;23;20200;-78
2022/09/22 03:16:56;;;;;;;4.10;3.45;;;11.90;99.90;;;;;;6069092;23;20653;-77
2022/09/22 03:19:23;;;;;;;4.32;3.67;;;11.80;99.90;;;;;;6069205;23;20200;-76
2022/09/22 03:21:52;;;;;;;3.83;3.40;;;11.80;99.90;;;;;;6069636;23;20260;-76
2022/09/22 03:24:18;;;;;;;3.55;3.25;;;11.80;99.90;;;;;;6056753;23;20608;-76
2022/09/22 03:26:45;;;;;;;3.83;3.40;;;11.80;99.90;;;;;;6054382;23;20267;-77
2022/09/22 03:29:12;;;;;;;3.20;2.90;;;11.80;99.90;;;;;;6067751;23;20709;-76
2022/09/22 03:31:39;;;;;;;3.20;2.90;;;11.80;99.90;;;;;;6068401;23;20212;-78
2022/09/22 03:34:12;;;;;;;3.97;3.28;;;11.80;99.90;;;;;;6068690;23;20214;-77
2022/09/22 03:36:43;;;;;;;3.42;3.08;;;11.70;99.90;;;;;;6069433;23;20267;-77
2022/09/22 03:39:11;;;;;;;3.67;2.33;;;11.70;99.90;;;;;;6067614;23;20267;-77
2022/09/22 03:41:39;;;;;;;3.60;3.30;;;11.70;99.90;;;;;;6069121;23;20199;-78
2022/09/22 03:44:08;;;;;;;3.90;3.38;;;11.60;99.90;;;;;;6066414;23;20657;-77
2022/09/22 03:46:35;;;;;;;2.95;2.72;;;11.60;99.90;;;;;;6068807;23;20264;-78
2022/09/22 03:49:02;;;;;;;3.55;3.15;;;11.60;99.90;;;;;;6068787;23;20204;-78
2022/09/22 03:51:29;;;;;;;4.80;3.58;;;11.60;99.90;;;;;;6068485;23;20264;-77
2022/09/22 03:53:56;;;;;;;3.63;3.33;;;11.50;99.90;;;;;;6068763;23;20711;-77
2022/09/22 03:56:25;;;;;;;3.28;3.03;;;11.50;99.90;;;;;;6068003;23;20208;-77
2022/09/22 03:58:52;;;;;;;2.97;2.78;;;11.50;99.90;;;;;;6069033;23;20276;-76
2022/09/22 04:01:19;;;;;;;3.28;2.80;;;11.50;99.90;;;;;;6053642;23;20200;-76
2022/09/22 04:03:55;;;;;;;4.43;3.50;;;11.50;99.90;;;;;;6067158;23;20255;-77
2022/09/22 04:06:22;;;;;;;4.13;3.83;;;11.40;99.90;;;;;;6066359;23;20208;-77
2022/09/22 04:08:49;;;;;;;3.47;2.70;;;11.50;99.90;;;;;;6069114;23;20239;-77
2022/09/22 04:11:16;;;;;;;3.53;3.22;;;11.50;99.90;;;;;;6068231;23;20208;-78
2022/09/22 04:13:45;;;;;;;3.67;3.35;;;11.40;99.90;;;;;;6069068;23;20286;-76
2022/09/22 04:16:11;;;;;;;2.90;2.70;;;11.50;99.90;;;;;;6067791;23;20283;-77
2022/09/22 04:18:39;;;;;;;4.15;3.10;;;11.40;99.90;;;;;;6069203;23;20504;-77
2022/09/22 04:21:07;;;;;;;4.05;3.30;;;11.50;99.90;;;;;;6069103;23;20295;-77
2022/09/22 04:23:35;;;;;;;2.90;2.70;;;11.40;99.90;;;;;;6068404;23;20208;-77
2022/09/22 04:26:04;;;;;;;5.30;3.45;;;11.40;99.90;;;;;;6068998;23;20274;-77
2022/09/22 04:28:31;;;;;;;4.10;3.78;;;11.40;99.90;;;;;;6068285;23;20513;-77
2022/09/22 04:30:59;;;;;;;3.60;3.30;;;11.40;99.90;;;;;;6069170;23;20239;-78
2022/09/22 04:33:26;;;;;;;6.00;3.70;;;11.40;99.90;;;;;;6067906;23;20545;-77
2022/09/22 04:35:54;;;;;;;5.75;3.90;;;11.40;99.90;;;;;;6068313;23;20200;-77
2022/09/22 04:38:21;;;;;;;3.72;3.42;;;11.40;99.90;;;;;;6067018;23;20572;-77
2022/09/22 04:40:48;;;;;;;4.40;4.10;;;11.40;99.90;;;;;;6068778;23;20204;-78
2022/09/22 04:43:21;;;;;;;3.53;3.33;;;11.40;99.90;;;;;;6067607;23;20267;-77
2022/09/22 04:45:48;;;;;;;4.47;4.18;;;11.40;99.90;;;;;;6068556;23;20200;-76
2022/09/22 04:48:17;;;;;;;4.90;4.40;;;11.30;99.90;;;;;;6067495;23;20270;-78
2022/09/22 04:50:44;;;;;;;4.60;4.00;;;11.30;99.90;;;;;;6068512;23;20235;-77
2022/09/22 04:53:15;;;;;;;3.55;2.97;;;11.30;99.90;;;;;;6068342;23;20529;-77
2022/09/22 04:55:42;;;;;;;3.95;3.30;;;11.30;99.90;;;;;;6067210;23;20297;-76
2022/09/22 04:58:09;;;;;;;5.65;4.07;;;11.30;99.90;;;;;;6068804;23;20268;-76
2022/09/22 05:00:37;;;;;;;4.38;3.97;;;11.30;99.90;;;;;;6067361;23;20558;-77
2022/09/22 05:03:08;;;;;;;3.47;3.00;;;11.20;99.90;;;;;;6068474;23;20215;-77
2022/09/22 05:05:37;;;;;;;8.73;3.30;;;11.30;99.90;;;;;;6068166;23;20220;-77
2022/09/22 05:08:06;;;;;;;4.32;3.92;;;11.20;99.90;;;;;;6055275;23;20212;-75
2022/09/22 05:10:35;;;;;;;3.60;3.30;;;11.30;99.90;;;;;;6069228;23;20200;-76
2022/09/22 05:13:02;;;;;;;4.03;3.50;;;11.30;99.90;;;;;;6069855;23;20230;-76
2022/09/22 05:15:33;;;;;;;4.05;3.65;;;11.20;99.90;;;;;;6068222;23;20549;-76
2022/09/22 05:18:00;;;;;;;4.30;3.90;;;11.20;99.90;;;;;;6069490;23;20230;-76
2022/09/22 05:20:27;;;;;;;4.25;3.38;;;11.20;99.90;;;;;;6068074;23;20707;-78
2022/09/22 05:22:55;;;;;;;8.68;4.15;;;11.20;99.90;;;;;;6068342;23;20271;-78
2022/09/22 05:25:22;;;;;;;3.63;3.35;;;11.20;99.90;;;;;;6066555;23;20201;-78
2022/09/22 05:27:53;;;;;;;3.53;3.22;;;11.20;99.90;;;;;;6067155;23;20212;-78
2022/09/22 05:30:21;;;;;;;3.80;3.42;;;11.20;99.90;;;;;;6068360;23;20259;-78
2022/09/22 05:32:48;;;;;;;3.72;3.42;;;11.20;99.90;;;;;;6056218;23;20275;-78
2022/09/22 05:35:18;;;;;;;4.07;3.72;;;11.20;99.90;;;;;;6068181;23;20204;-77
2022/09/22 05:37:51;;;;;;;3.33;3.05;;;11.20;99.90;;;;;;6067903;23;20212;-77
2022/09/22 05:40:22;;;;;;;3.03;2.78;;;11.30;99.90;;;;;;6067870;23;20206;-78
2022/09/22 05:42:51;;;;;;;6.05;3.95;;;11.30;99.90;;;;;;6053584;23;20218;-77
2022/09/22 05:45:19;;;;;;;3.42;3.13;;;11.20;99.90;;;;;;6068504;23;20643;-79
2022/09/22 05:47:47;;;;;;;3.45;3.13;;;11.30;99.90;;;;;;6066746;23;20219;-77
2022/09/22 05:50:16;;;;;;;3.40;3.03;;;11.30;99.90;;;;;;6068329;23;20279;-77
2022/09/22 05:52:43;;;;;;;3.63;3.10;;;11.30;99.90;;;;;;6067412;23;20208;-78
2022/09/22 05:55:11;;;;;;;5.43;3.70;;;11.30;99.90;;;;;;6068312;23;20211;-77
2022/09/22 05:57:39;;;;;;;5.88;3.95;;;11.40;99.90;;;;;;6067628;23;20271;-77
2022/09/22 06:00:08;;;;;;;4.93;3.80;;;11.40;99.90;;;;;;6068533;23;20208;-77
2022/09/22 06:02:35;;;;;;;8.05;4.32;;;11.40;99.90;;;;;;6066890;23;20235;-77
2022/09/22 06:05:02;;;;;;;3.92;3.63;;;11.40;99.90;;;;;;6068060;23;20208;-77
2022/09/22 06:07:29;;;;;;;4.60;4.20;;;11.50;99.90;;;;;;6068229;23;20648;-76
2022/09/22 06:09:56;;;;;;;4.80;3.97;;;11.50;99.90;;;;;;6068031;23;20212;-77
2022/09/22 06:12:23;;;;;;;7.82;5.38;;;11.50;99.90;;;;;;6068362;23;20215;-76
2022/09/22 06:14:51;;;;;;;4.78;4.28;;;11.50;99.90;;;;;;6066378;23;20210;-77
2022/09/22 06:17:18;;;;;;;6.03;4.90;;;11.60;99.90;;;;;;6068008;23;20219;-77
2022/09/22 06:19:48;;;;;;;4.03;3.63;;;11.60;99.90;;;;;;6067584;23;20200;-78
2022/09/22 06:22:15;;;;;;;4.53;3.00;;;11.70;99.90;;;;;;6067520;23;20204;-79
2022/09/22 06:24:42;;;;;;;3.60;3.30;;;11.70;99.90;;;;;;6067407;23;20549;-78
2022/09/22 06:27:09;;;;;;;4.50;3.08;;;11.80;99.90;;;;;;6067925;23;20239;-77
2022/09/22 06:29:36;;;;;;;3.15;2.85;;;11.80;99.90;;;;;;6067940;23;20717;-77
2022/09/22 06:32:07;;;;;;;3.80;3.45;;;11.80;99.90;;;;;;6066546;23;20212;-77
2022/09/22 06:34:35;;;;;;;3.35;2.90;;;11.90;99.90;;;;;;6068176;23;20208;-77
2022/09/22 06:37:02;;;;;;;2.75;2.55;;;11.90;99.90;;;;;;6067387;23;20466;-77
2022/09/22 06:39:29;;;;;;;6.90;3.83;;;12.00;99.90;;;;;;6069665;23;20245;-77
2022/09/22 06:42:01;;;;;;;3.50;3.22;;;12.00;99.90;;;;;;6052889;23;20271;-78
2022/09/22 06:44:30;;;;;;;4.75;4.20;;;12.00;99.90;;;;;;6068619;23;20240;-77
2022/09/22 06:46:57;;;;;;;3.88;3.40;;;12.10;99.90;;;;;;6069198;23;20204;-76
2022/09/22 06:49:25;;;;;;;5.55;4.00;;;12.10;99.90;;;;;;6069989;23;20218;-77
2022/09/22 06:51:53;;;;;;;4.65;4.22;;;12.20;99.90;;;;;;6069086;23;20203;-75
2022/09/22 06:54:21;;;;;;;3.42;3.13;;;12.20;99.90;;;;;;6069564;23;20200;-76
2022/09/22 06:57:04;;;;;;;3.25;2.95;;;12.30;99.90;;;;;;6069760;23;20227;-77
2022/09/22 06:59:30;;;;;;;3.20;2.85;;;12.30;99.90;;;;;;6070117;23;20263;-77
2022/09/22 07:01:57;;;;;;;3.60;3.30;;;12.40;99.90;;;;;;6068906;23;20230;-77
2022/09/22 07:04:26;;;;;;;3.50;3.20;;;12.40;99.90;;;;;;6069557;23;20244;-76
2022/09/22 07:06:53;;;;;;;3.80;3.40;;;12.50;99.90;;;;;;6067640;23;20204;-77
2022/09/22 07:09:33;;;;;;;4.53;4.13;;;12.50;99.90;;;;;;6070131;23;20279;-79
2022/09/22 07:12:07;;;;;;;4.63;4.20;;;12.60;99.90;;;;;;6068564;23;20207;-76
2022/09/22 07:14:34;;;;;;;5.40;4.93;;;12.70;99.90;;;;;;6069471;23;20226;-79
2022/09/22 07:17:01;;;;;;;4.97;4.32;;;12.70;99.90;;;;;;6055756;23;20208;-77
2022/09/22 07:19:35;;;;;;;5.30;4.80;;;12.70;99.90;;;;;;6069673;23;20636;-77
2022/09/22 07:22:02;;;;;;;4.63;4.22;;;12.80;99.90;;;;;;6068515;23;20211;-77
2022/09/22 07:24:29;;;;;;;5.45;4.97;;;12.90;99.90;;;;;;6069334;23;20204;-76
2022/09/22 07:26:56;;;;;;;4.88;4.47;;;12.90;99.90;;;;;;6068728;23;20204;-76
2022/09/22 07:29:23;;;;;;;5.38;4.95;;;13.00;99.90;;;;;;6069539;23;20234;-78
2022/09/22 07:31:50;;;;;;;4.47;4.07;;;13.00;99.90;;;;;;6068722;23;20281;-78
2022/09/22 07:34:17;;;;;;;4.20;3.35;;;13.10;99.90;;;;;;6068809;23;20224;-77
2022/09/22 07:36:45;;;;;;;5.20;4.50;;;13.20;99.90;;;;;;6068509;23;20196;-77
2022/09/22 07:39:12;;;;;;;3.65;3.35;;;13.20;99.90;;;;;;6069501;23;20204;-77
2022/09/22 07:41:42;;;;;;;3.97;3.15;;;13.30;99.90;;;;;;6069360;23;20271;-77
2022/09/22 07:46:54;;;;;;;4.28;3.88;;;13.40;99.90;;;;;;6068482;23;20198;-77
2022/09/22 07:49:21;;;;;;;3.58;3.28;;;13.50;99.90;;;;;;6069361;23;20660;-78
2022/09/22 07:51:53;;;;;;;3.80;3.50;;;13.50;99.90;;;;;;6068465;23;20686;-77
2022/09/22 07:54:21;;;;;;;3.60;3.30;;;13.60;99.90;;;;;;6069236;23;20204;-77
2022/09/22 07:56:48;;;;;;;3.28;2.97;;;13.60;99.90;;;;;;6069029;23;20545;-77
2022/09/22 07:59:16;;;;;;;3.60;3.30;;;13.70;99.90;;;;;;6068974;23;20232;-78
2022/09/22 08:01:46;;;;;;;6.60;5.88;;;13.70;99.90;;;;;;6068539;23;20509;-78
2022/09/22 08:04:15;;;;;;;5.97;4.60;;;13.80;99.90;;;;;;6068910;23;20200;-77
2022/09/22 08:06:43;;;;;;;6.25;2.90;;;13.90;99.90;;;;;;6069223;23;20225;-76
2022/09/22 08:09:17;;;;;;;2.47;2.28;;;13.90;99.90;;;;;;6068169;23;20204;-78
2022/09/22 08:11:47;;;;;;;2.20;2.05;;;14.00;99.90;;;;;;6068478;23;20210;-78
2022/09/22 08:14:16;;;;;;;2.30;2.03;;;14.10;99.90;;;;;;6068644;23;20519;-77
2022/09/22 08:16:45;;;;;;;2.83;2.22;;;14.20;99.90;;;;;;6069106;23;20231;-77
2022/09/22 08:19:13;;;;;;;3.03;1.85;;;14.20;99.90;;;;;;6069078;23;20204;-77
2022/09/22 08:21:42;;;;;;;5.25;2.17;;;14.30;99.90;;;;;;6068961;23;20236;-76
2022/09/22 08:24:10;;;;;;;4.50;2.13;;;14.30;99.90;;;;;;6068146;23;20204;-77
2022/09/22 08:26:40;;;;;;;1.80;1.70;;;14.30;99.90;;;;;;6069134;23;20267;-77
2022/09/22 08:29:08;;;;;;;2.00;1.80;;;14.40;99.90;;;;;;6067235;23;20236;-78
2022/09/22 08:31:36;;;;;;;2.55;1.75;;;14.50;99.90;;;;;;6068863;23;20257;-77
2022/09/22 08:34:05;;;;;;;1.70;1.60;;;14.60;99.90;;;;;;6068181;23;20724;-76
2022/09/22 08:36:33;;;;;;;1.25;1.15;;;14.70;99.90;;;;;;6069127;23;20505;-76
2022/09/22 08:39:00;;;;;;;1.60;1.50;;;14.70;99.90;;;;;;6067421;23;20203;-77
2022/09/22 08:41:37;;;;;;;3.55;1.63;;;14.80;99.90;;;;;;6068332;23;20228;-78
2022/09/22 08:44:18;;;;;;;1.63;1.30;;;14.80;99.90;;;;;;6067766;23;20228;-77
2022/09/22 08:46:47;;;;;;;1.20;1.00;;;14.90;99.90;;;;;;6067546;23;20447;-77
2022/09/22 08:52:14;;;;;;;1.40;1.20;;;15.00;99.90;;;;;;6067958;23;20492;-76
2022/09/22 08:54:43;;;;;;;3.70;1.30;;;15.10;99.90;;;;;;6068130;23;20440;-77
2022/09/22 08:57:23;;;;;;;5.37;1.60;;;15.20;99.90;;;;;;6066396;23;20444;-77
2022/09/22 09:00:03;;;;;;;1.17;1.07;;;15.20;99.90;;;;;;6068658;23;20473;-78
2022/09/22 09:02:35;;;;;;;3.17;1.53;;;15.20;99.90;;;;;;6068420;23;20790;-76
2022/09/22 09:05:39;;;;;;;1.60;1.10;;;15.30;99.90;;;;;;6068020;23;20444;-76
2022/09/22 09:08:38;;;;;;;2.13;1.13;;;15.40;99.90;;;;;;6067820;23;20516;-77
2022/09/22 09:11:17;;;;;;;2.90;1.60;;;15.50;99.90;;;;;;6014743;23;20434;-77
2022/09/22 09:13:57;;;;;;;3.83;1.80;;;15.60;99.90;;;;;;6067617;23;20447;-78
2022/09/22 09:16:44;;;;;;;2.80;1.90;;;15.60;99.90;;;;;;6068604;23;20443;-77
2022/09/22 09:19:32;;;;;;;2.47;1.63;;;15.60;99.90;;;;;;6068058;23;20428;-76
2022/09/22 09:22:04;;;;;;;1.87;1.43;;;15.70;99.90;;;;;;6067481;23;20440;-77
2022/09/22 09:24:47;;;;;;;2.77;1.53;;;15.80;99.90;;;;;;6055200;23;20464;-76
2022/09/22 09:27:20;;;;;;;1.07;0.97;;;15.80;99.90;;;;;;6068316;23;20725;-76
2022/09/22 09:30:09;;;;;;;1.63;1.20;;;15.90;99.90;;;;;;6067573;23;20444;-77
2022/09/22 09:32:51;;;;;;;1.10;0.97;;;15.90;99.90;;;;;;6067574;23;20463;-76
2022/09/22 09:35:44;;;;;;;1.53;1.00;;;16.00;99.90;;;;;;6037278;23;20507;-77
2022/09/22 10:04:44;;;;;;;;;;;;;;;;;;;;;
2022/09/22 10:22:26;;;;;;;4.87;1.17;;;16.90;97.90;;;;;;5922993;24;20522;-77
2022/09/22 10:24:59;;;;;;;5.30;1.20;;;16.90;97.60;;;;;;5962389;23;20513;-78
2022/09/22 10:27:27;;;;;;;2.20;1.40;;;16.90;97.40;;;;;;6011172;23;20439;-76
2022/09/22 10:30:17;;;;;;;1.57;1.10;;;16.90;97.20;;;;;;6009335;23;20443;-76
2022/09/22 10:33:10;;;;;;;1.50;1.30;;;16.90;97.10;;;;;;6007217;23;20516;-77
2022/09/22 10:38:28;;;;;;;0.87;0.70;;;16.90;96.60;;;;;;6010192;23;20479;-76
2022/09/22 10:41:03;;;;;;;2.63;1.17;;;16.90;96.70;;;;;;6009505;23;20438;-77
2022/09/22 10:43:42;;;;;;;1.43;0.90;;;16.90;96.80;;;;;;6009594;23;20738;-76
2022/09/22 10:46:39;;;;;;;1.10;0.93;;;16.90;96.10;;;;;;6001599;23;20434;-75
2022/09/22 10:49:12;;;;;;;1.53;1.30;;;16.90;95.60;;;;;;5988768;23;20464;-76
2022/09/22 10:51:55;;;;;;;1.40;1.00;;;16.90;95.80;;;;;;6019608;23;20449;-76
2022/09/22 10:54:42;;;;;;;2.07;0.70;;;16.90;95.70;;;;;;6037290;23;20438;-76
2022/09/22 10:57:23;;;;;;;0.90;0.90;;;17.00;95.60;;;;;;6008855;23;20537;-76
2022/09/22 11:00:09;;;;;;;1.47;1.10;;;17.00;95.30;;;;;;6037976;23;20461;-77
2022/09/22 11:03:00;;;;;;;2.13;1.63;;;17.10;95.10;;;;;;6038971;23;20525;-77
2022/09/22 11:14:15;;;;;;;1.87;1.10;;;17.40;94.30;;;;;;6038930;23;20478;-76
2022/09/22 11:16:57;;;;;;;1.63;1.10;;;17.40;94.00;;;;;;6039335;23;20434;-76
2022/09/22 11:19:42;;;;;;;1.47;1.30;;;17.50;93.80;;;;;;6038295;23;20850;-75
2022/09/22 11:22:35;;;;;;;1.57;1.43;;;17.50;93.70;;;;;;6036778;23;20478;-76
2022/09/22 11:25:16;;;;;;;1.30;1.20;;;17.60;93.70;;;;;;6037500;23;20455;-77
2022/09/22 11:27:59;;;;;;;1.00;0.90;;;17.60;93.50;;;;;;6039108;23;20765;-76
2022/09/22 11:30:28;;;;;;;1.63;1.10;;;17.70;93.90;;;;;;6038743;23;20854;-76
2022/09/22 11:33:23;;;;;;;1.33;0.93;;;17.70;92.90;;;;;;6036958;23;20828;-75
2022/09/22 11:36:02;;;;;;;1.53;0.90;;;17.80;92.80;;;;;;6038218;23;20463;-76
2022/09/22 11:38:56;;;;;;;1.27;0.90;;;17.90;92.40;;;;;;6038360;23;20467;-77
2022/09/22 11:41:38;;;;;;;1.73;1.30;;;18.00;92.20;;;;;;6029168;23;20535;-76
2022/09/22 11:44:30;;;;;;;1.23;1.13;;;18.00;92.60;;;;;;6011907;23;20544;-77
2022/09/22 11:47:19;;;;;;;1.83;1.20;;;18.00;92.80;;;;;;6038572;23;20427;-76
2022/09/22 11:50:08;;;;;;;2.57;1.60;;;17.90;92.10;;;;;;6010557;23;20447;-76
2022/09/22 11:52:49;;;;;;;2.63;1.27;;;17.90;91.50;;;;;;6037683;23;20439;-76
2022/09/22 11:55:35;;;;;;;3.30;1.50;;;17.90;91.60;;;;;;6038993;23;20439;-76
2022/09/22 11:58:11;;;;;;;1.87;1.30;;;17.90;91.60;;;;;;6038123;23;20486;-76
2022/09/22 12:00:46;;;;;;;2.17;1.10;;;17.90;91.90;;;;;;6038064;23;20947;-76
2022/09/22 12:03:17;;;;;;;2.07;0.97;;;17.90;90.90;;;;;;6038614;23;20515;-77
2022/09/22 12:05:48;;;;;;;1.20;1.00;;;17.90;89.70;;;;;;6038405;23;20713;-76
2022/09/22 12:08:17;;;;;;;1.40;0.90;;;17.90;88.30;;;;;;6038110;23;20443;-77
2022/09/22 12:10:49;;;;;;;1.63;0.90;;;18.00;88.10;;;;;;6038002;23;20802;-77
2022/09/22 12:13:18;;;;;;;1.20;0.90;;;17.90;86.20;;;;;;6038797;23;20818;-77
2022/09/22 12:15:59;;;;;;;1.10;1.00;;;17.90;86.90;;;;;;6037551;23;20442;-76
2022/09/22 12:18:33;;;;;;;2.40;0.90;;;17.90;86.60;;;;;;6038500;23;20572;-77
2022/09/22 12:21:05;;;;;;;0.90;0.80;;;17.90;87.30;;;;;;6037961;23;20432;-78
2022/09/22 12:23:38;;;;;;;1.90;0.93;;;17.90;85.10;;;;;;6038711;23;20439;-77
2022/09/22 12:26:08;;;;;;;3.17;1.10;;;17.80;85.50;;;;;;6023547;23;20441;-77
2022/09/22 12:28:43;;;;;;;1.03;0.80;;;17.90;85.90;;;;;;6038243;23;20446;-76
2022/09/22 12:31:14;;;;;;;1.30;1.20;;;17.90;85.20;;;;;;6037709;23;20436;-77
2022/09/22 12:33:47;;;;;;;1.40;1.00;;;17.90;85.10;;;;;;6038458;23;20714;-76
2022/09/22 12:36:29;;;;;;;1.07;0.73;;;17.90;84.40;;;;;;6024718;23;20445;-77
2022/09/22 12:39:07;;;;;;;1.20;0.80;;;17.90;85.20;;;;;;6038196;23;20438;-77
2022/09/22 12:41:47;;;;;;;1.30;1.17;;;17.80;84.60;;;;;;6038485;23;20455;-77
2022/09/22 12:44:19;;;;;;;2.40;0.87;;;17.90;84.60;;;;;;6038394;23;20510;-77
2022/09/22 12:46:49;;;;;;;1.20;1.10;;;17.90;83.10;;;;;;6038219;23;20513;-76
2022/09/22 12:49:21;;;;;;;5.23;0.80;;;17.90;83.00;;;;;;6038680;23;20436;-76
2022/09/22 12:51:48;;;;;;;1.37;0.80;;;17.90;82.70;;;;;;6037357;23;20452;-77
2022/09/22 12:54:42;;;;;;;0.60;0.60;;;17.90;82.20;;;;;;6038133;23;20437;-77
2022/09/22 12:57:28;;;;;;;0.80;0.80;;;17.90;82.80;;;;;;6024625;23;20449;-77
2022/09/22 13:00:28;;;;;;;1.10;1.00;;;18.00;83.50;;;;;;6038693;23;20442;-76
2022/09/22 13:02:56;;;;;;;1.27;0.90;;;18.00;83.40;;;;;;6039570;23;20444;-77
2022/09/22 13:05:42;;;;;;;1.30;0.70;;;18.00;82.80;;;;;;6039429;23;20522;-77
2022/09/22 13:08:24;;;;;;;1.10;0.80;;;17.90;82.10;;;;;;6036876;23;20488;-77
2022/09/22 13:10:58;;;;;;;1.20;1.10;;;17.90;81.10;;;;;;6036617;23;20774;-77
2022/09/22 13:13:42;;;;;;;1.10;0.80;;;17.90;80.80;;;;;;6034822;23;20512;-76
2022/09/22 13:16:35;;;;;;;1.00;0.90;;;17.80;81.10;;;;;;6035155;23;20441;-77
2022/09/22 13:19:08;;;;;;;1.20;0.97;;;17.90;82.10;;;;;;6035854;23;20455;-77
2022/09/22 13:21:35;;;;;;;1.10;1.00;;;17.80;82.30;;;;;;6036772;23;20572;-77
2022/09/22 13:24:07;;;;;;;1.07;0.80;;;17.80;83.00;;;;;;6038812;23;20735;-77
2022/09/22 13:26:36;;;;;;;1.70;0.87;;;17.70;82.90;;;;;;6040342;23;20507;-77
2022/09/22 13:29:11;;;;;;;1.33;0.90;;;17.80;83.60;;;;;;6027681;23;20468;-77
2022/09/22 13:31:49;;;;;;;1.10;0.97;;;17.70;84.10;;;;;;6039923;23;20475;-76
2022/09/22 13:34:29;;;;;;;3.00;0.80;;;17.70;84.50;;;;;;6029556;23;20493;-75
2022/09/22 13:37:07;;;;;;;1.73;1.23;;;17.60;84.40;;;;;;6043070;23;20441;-75
2022/09/22 13:39:37;;;;;;;1.77;0.80;;;17.60;84.20;;;;;;6039553;23;20440;-75
2022/09/22 13:42:08;;;;;;;1.00;0.90;;;17.50;84.10;;;;;;6039746;23;20444;-75
2022/09/22 13:44:38;;;;;;;1.20;1.00;;;17.50;84.30;;;;;;6039238;23;20433;-76
2022/09/22 13:47:12;;;;;;;2.27;1.30;;;17.40;83.80;;;;;;6036056;23;20442;-77
2022/09/22 13:49:46;;;;;;;1.23;1.13;;;17.40;82.90;;;;;;6050706;23;20774;-76
2022/09/22 13:52:16;;;;;;;1.63;1.10;;;17.30;82.90;;;;;;6055324;23;20446;-76
2022/09/22 13:54:48;;;;;;;2.10;1.00;;;17.30;83.20;;;;;;6066826;23;20436;-75
2022/09/22 13:57:20;;;;;;;1.20;1.10;;;17.30;83.60;;;;;;6066105;23;20756;-76
2022/09/22 13:59:47;;;;;;;1.10;0.90;;;17.30;84.00;;;;;;6049995;23;20434;-76
2022/09/22 14:02:26;;;;;;;1.10;1.00;;;17.30;84.70;;;;;;6064955;23;20443;-76
2022/09/22 14:04:56;;;;;;;1.63;1.33;;;17.20;85.90;;;;;;6066330;23;20435;-75
2022/09/22 14:07:29;;;;;;;1.43;1.17;;;17.20;87.00;;;;;;6067515;23;20451;-76
2022/09/22 14:09:57;;;;;;;1.60;1.50;;;17.10;87.50;;;;;;6065594;23;20435;-75
2022/09/22 14:12:27;;;;;;;2.17;1.83;;;17.10;88.80;;;;;;6065291;23;20451;-75
2022/09/22 14:14:55;;;;;;;2.47;2.27;;;17.10;89.20;;;;;;6064405;23;20473;-76
2022/09/22 14:17:25;;;;;;;2.40;1.33;;;17.00;88.10;;;;;;6065870;23;20991;-77